Time;durP1;ratioP1;P1;durP2;ratioP2;P2;SDS_P1;SDS_P2;PMS_P1;PMS_P2;Temp;Humidity;BMP_temperature;BMP_pressure;BME280_temperature;BME280_humidity;BME280_pressure;Samples;Min_cycle;Max_cycle;Signal;HPM_P1;HPM_P2
2021/03/11 00:00:49;;;;;;;25.55;17.17;;;;;;;;;;5094155;28;20200;-62
2021/03/11 00:03:16;;;;;;;21.42;16.10;;;;;;;;;;5093869;28;20254;-62
2021/03/11 00:05:44;;;;;;;23.45;16.90;;;;;;;;;;5093621;28;20223;-63
2021/03/11 00:08:11;;;;;;;22.95;16.20;;;;;;;;;;5094062;28;20209;-61
2021/03/11 00:10:39;;;;;;;27.40;17.45;;;;;;;;;;5093612;28;20226;-63
2021/03/11 00:13:06;;;;;;;20.80;16.55;;;;;;;;;;5094166;28;20664;-62
2021/03/11 00:15:33;;;;;;;28.08;16.65;;;;;;;;;;5096354;28;20204;-63
2021/03/11 00:18:00;;;;;;;24.38;16.42;;;;;;;;;;5105424;28;20196;-63
2021/03/11 00:20:27;;;;;;;24.25;17.45;;;;;;;;;;5104770;28;20253;-64
2021/03/11 00:22:54;;;;;;;23.70;18.23;;;;;;;;;;5102849;28;20195;-62
2021/03/11 00:25:23;;;;;;;22.33;16.25;;;;;;;;;;5099445;28;20729;-64
2021/03/11 00:27:50;;;;;;;26.67;19.00;;;;;;;;;;5098183;28;20216;-63
2021/03/11 00:30:17;;;;;;;26.10;17.42;;;;;;;;;;5099236;28;20196;-62
2021/03/11 00:32:44;;;;;;;22.63;16.67;;;;;;;;;;5099951;28;20571;-62
2021/03/11 00:35:12;;;;;;;22.77;16.60;;;;;;;;;;5098424;28;20227;-62
2021/03/11 00:37:39;;;;;;;23.52;15.95;;;;;;;;;;5099385;28;20208;-62
2021/03/11 00:40:07;;;;;;;24.55;17.23;;;;;;;;;;5099521;28;20209;-62
2021/03/11 00:42:35;;;;;;;20.85;16.17;;;;;;;;;;5098394;28;20203;-62
2021/03/11 00:45:02;;;;;;;23.20;17.20;;;;;;;;;;5098489;28;20761;-61
2021/03/11 00:47:29;;;;;;;24.17;16.77;;;;;;;;;;5098488;28;20230;-63
2021/03/11 00:49:55;;;;;;;26.38;16.60;;;;;;;;;;5098557;28;20300;-61
2021/03/11 00:52:22;;;;;;;22.05;16.30;;;;;;;;;;5100676;28;20572;-61
2021/03/11 00:54:49;;;;;;;23.50;17.42;;;;;;;;;;5104666;28;20220;-62
2021/03/11 00:57:16;;;;;;;23.58;17.08;;;;;;;;;;5099303;28;20619;-61
2021/03/11 00:59:43;;;;;;;26.80;19.45;;;;;;;;;;5099777;28;20222;-62
2021/03/11 01:02:10;;;;;;;26.13;16.73;;;;;;;;;;5099093;28;20200;-61
2021/03/11 01:04:37;;;;;;;21.92;15.88;;;;;;;;;;5098576;28;20274;-62
2021/03/11 01:07:04;;;;;;;29.02;18.63;;;;;;;;;;5099491;28;20204;-62
2021/03/11 01:09:30;;;;;;;23.85;17.52;;;;;;;;;;5107614;28;20220;-62
2021/03/11 01:11:57;;;;;;;22.65;16.30;;;;;;;;;;5099543;28;20660;-62
2021/03/11 01:14:24;;;;;;;28.60;18.13;;;;;;;;;;5105059;28;20220;-62
2021/03/11 01:16:53;;;;;;;27.00;16.92;;;;;;;;;;5109381;28;20196;-62
2021/03/11 01:19:19;;;;;;;23.35;16.35;;;;;;;;;;5106170;28;20204;-61
2021/03/11 01:21:46;;;;;;;25.30;18.38;;;;;;;;;;5098942;28;20200;-61
2021/03/11 01:24:13;;;;;;;22.98;16.60;;;;;;;;;;5102013;28;20220;-61
2021/03/11 01:26:40;;;;;;;26.10;17.35;;;;;;;;;;5100769;28;20258;-63
2021/03/11 01:29:07;;;;;;;22.88;17.73;;;;;;;;;;5097484;28;20220;-62
2021/03/11 01:31:33;;;;;;;27.10;18.13;;;;;;;;;;5097127;28;20250;-62
2021/03/11 01:34:01;;;;;;;25.63;17.63;;;;;;;;;;5096267;28;20293;-61
2021/03/11 01:36:28;;;;;;;25.95;18.23;;;;;;;;;;5095902;28;20211;-61
2021/03/11 01:38:55;;;;;;;22.33;16.52;;;;;;;;;;5096473;28;20207;-62
2021/03/11 01:41:21;;;;;;;26.38;17.95;;;;;;;;;;5096577;28;20200;-62
2021/03/11 01:43:48;;;;;;;22.40;16.48;;;;;;;;;;5096437;28;20220;-61
2021/03/11 01:46:15;;;;;;;23.70;17.58;;;;;;;;;;5096176;28;20207;-61
2021/03/11 01:48:42;;;;;;;24.17;16.92;;;;;;;;;;5096324;28;20216;-62
2021/03/11 01:51:10;;;;;;;22.15;15.98;;;;;;;;;;5096185;28;20196;-61
2021/03/11 01:53:36;;;;;;;22.02;15.93;;;;;;;;;;5096033;28;20286;-63
2021/03/11 01:56:03;;;;;;;23.45;15.88;;;;;;;;;;5095791;28;20200;-62
2021/03/11 01:58:30;;;;;;;23.33;16.15;;;;;;;;;;5096231;28;20200;-62
2021/03/11 02:00:57;;;;;;;25.10;14.75;;;;;;;;;;5095837;28;20253;-62
2021/03/11 02:03:24;;;;;;;22.25;15.55;;;;;;;;;;5095959;28;20712;-62
2021/03/11 02:05:50;;;;;;;22.10;16.17;;;;;;;;;;5096200;28;20212;-65
2021/03/11 02:08:18;;;;;;;18.85;14.00;;;;;;;;;;5095884;28;20700;-62
2021/03/11 02:10:45;;;;;;;19.42;14.70;;;;;;;;;;5096567;28;20204;-63
2021/03/11 02:13:29;;;;;;;20.75;14.55;;;;;;;;;;5095564;28;20669;-62
2021/03/11 02:15:59;;;;;;;19.75;13.98;;;;;;;;;;5095661;28;20184;-62
2021/03/11 02:18:28;;;;;;;19.30;14.30;;;;;;;;;;5095387;28;20208;-62
2021/03/11 02:20:57;;;;;;;19.15;14.57;;;;;;;;;;5095454;28;20201;-62
2021/03/11 02:23:44;;;;;;;19.65;14.45;;;;;;;;;;5095257;28;20228;-63
2021/03/11 02:26:16;;;;;;;19.38;14.68;;;;;;;;;;5095698;28;20632;-61
2021/03/11 02:28:54;;;;;;;19.60;15.27;;;;;;;;;;5096386;28;20302;-62
2021/03/11 02:31:21;;;;;;;19.20;14.40;;;;;;;;;;5095958;28;20191;-64
2021/03/11 02:33:48;;;;;;;20.15;14.95;;;;;;;;;;5095508;28;20256;-62
2021/03/11 02:36:15;;;;;;;20.95;16.10;;;;;;;;;;5095819;28;20250;-61
2021/03/11 02:38:42;;;;;;;17.63;14.38;;;;;;;;;;5095184;28;20219;-62
2021/03/11 02:41:10;;;;;;;17.30;13.32;;;;;;;;;;5095353;28;20203;-62
2021/03/11 02:43:36;;;;;;;19.05;14.27;;;;;;;;;;5095321;28;20217;-62
2021/03/11 02:46:05;;;;;;;20.35;15.07;;;;;;;;;;5094397;28;20208;-62
2021/03/11 02:48:32;;;;;;;21.23;15.82;;;;;;;;;;5094739;28;20216;-62
2021/03/11 02:51:00;;;;;;;19.92;14.02;;;;;;;;;;5094795;28;20254;-62
2021/03/11 02:53:27;;;;;;;19.98;15.10;;;;;;;;;;5095153;28;20259;-62
2021/03/11 02:55:54;;;;;;;18.88;14.60;;;;;;;;;;5095130;28;20223;-62
2021/03/11 02:58:21;;;;;;;19.42;14.45;;;;;;;;;;5108566;28;20222;-62
2021/03/11 03:00:49;;;;;;;16.92;14.23;;;;;;;;;;5099842;28;20207;-62
2021/03/11 03:03:16;;;;;;;17.65;14.18;;;;;;;;;;5096739;28;20206;-62
2021/03/11 03:05:44;;;;;;;20.30;14.90;;;;;;;;;;5097013;28;20212;-61
2021/03/11 03:08:11;;;;;;;19.48;14.98;;;;;;;;;;5095483;28;20212;-61
2021/03/11 03:10:38;;;;;;;17.35;13.10;;;;;;;;;;5096451;28;20204;-61
2021/03/11 03:13:07;;;;;;;24.98;16.77;;;;;;;;;;5096353;28;20196;-60
2021/03/11 03:15:34;;;;;;;17.63;14.82;;;;;;;;;;5096243;28;20749;-62
2021/03/11 03:18:01;;;;;;;18.10;15.00;;;;;;;;;;5096845;28;20253;-62
2021/03/11 03:20:29;;;;;;;17.02;13.13;;;;;;;;;;5096539;28;20200;-62
2021/03/11 03:22:57;;;;;;;18.63;13.82;;;;;;;;;;5095769;28;20229;-63
2021/03/11 03:25:24;;;;;;;20.02;14.00;;;;;;;;;;5095063;28;20759;-61
2021/03/11 03:27:51;;;;;;;20.13;15.85;;;;;;;;;;5094670;28;20201;-62
2021/03/11 03:30:18;;;;;;;19.73;14.32;;;;;;;;;;5094593;28;20200;-63
2021/03/11 03:32:45;;;;;;;17.98;13.40;;;;;;;;;;5094541;28;20205;-62
2021/03/11 03:35:12;;;;;;;18.10;13.57;;;;;;;;;;5096022;28;20220;-63
2021/03/11 03:37:40;;;;;;;18.90;14.35;;;;;;;;;;5096193;28;20578;-63
2021/03/11 03:40:07;;;;;;;20.80;14.85;;;;;;;;;;5094466;28;20616;-59
2021/03/11 03:42:36;;;;;;;19.67;16.20;;;;;;;;;;5095449;28;20570;-63
2021/03/11 03:45:04;;;;;;;19.30;14.45;;;;;;;;;;5096962;28;20587;-60
2021/03/11 03:47:31;;;;;;;19.75;14.15;;;;;;;;;;5100009;28;20196;-62
2021/03/11 03:49:58;;;;;;;19.20;13.80;;;;;;;;;;5103016;28;20231;-62
2021/03/11 03:52:26;;;;;;;16.90;13.50;;;;;;;;;;5102588;28;20223;-63
2021/03/11 03:54:54;;;;;;;20.70;13.82;;;;;;;;;;5107756;28;20215;-62
2021/03/11 03:57:22;;;;;;;19.25;12.00;;;;;;;;;;5104915;28;20200;-62
2021/03/11 03:59:50;;;;;;;17.45;13.52;;;;;;;;;;5096688;28;20192;-62
2021/03/11 04:02:17;;;;;;;18.48;13.73;;;;;;;;;;5098915;28;20208;-62
2021/03/11 04:07:50;;;;;;;18.48;14.48;;;;;;;;;;5118568;27;20535;-63
2021/03/11 04:10:17;;;;;;;18.77;12.93;;;;;;;;;;5121118;28;20257;-63
2021/03/11 04:12:44;;;;;;;16.90;12.98;;;;;;;;;;5119941;28;20199;-62
2021/03/11 04:15:12;;;;;;;16.50;12.13;;;;;;;;;;5117307;28;20223;-62
2021/03/11 04:17:39;;;;;;;16.95;12.93;;;;;;;;;;5116863;28;20291;-62
2021/03/11 04:20:07;;;;;;;17.85;14.50;;;;;;;;;;5116363;28;20253;-63
2021/03/11 04:22:34;;;;;;;17.90;11.25;;;;;;;;;;5117859;28;20690;-62
2021/03/11 04:25:02;;;;;;;15.70;12.07;;;;;;;;;;5118697;28;20231;-62
2021/03/11 04:27:29;;;;;;;16.10;11.57;;;;;;;;;;5119319;28;20292;-63
2021/03/11 04:29:56;;;;;;;14.90;11.40;;;;;;;;;;5119494;28;20229;-62
2021/03/11 04:32:23;;;;;;;15.75;11.20;;;;;;;;;;5118424;28;20203;-64
2021/03/11 04:34:50;;;;;;;22.13;11.50;;;;;;;;;;5118541;28;20224;-63
2021/03/11 04:37:17;;;;;;;16.70;11.80;;;;;;;;;;5117137;28;20199;-62
2021/03/11 04:39:44;;;;;;;15.35;12.23;;;;;;;;;;5124103;28;20200;-63
2021/03/11 04:42:12;;;;;;;18.42;11.18;;;;;;;;;;5123406;28;20203;-64
2021/03/11 04:44:38;;;;;;;13.20;11.40;;;;;;;;;;5122571;28;20231;-62
2021/03/11 04:47:05;;;;;;;14.40;10.30;;;;;;;;;;5123548;28;20212;-63
2021/03/11 04:49:32;;;;;;;15.35;11.10;;;;;;;;;;5119482;28;20208;-63
2021/03/11 04:52:00;;;;;;;11.85;10.57;;;;;;;;;;5115131;28;20208;-62
2021/03/11 04:54:27;;;;;;;13.57;11.25;;;;;;;;;;5112632;28;20216;-63
2021/03/11 04:56:54;;;;;;;16.45;12.35;;;;;;;;;;5111582;28;20192;-62
2021/03/11 04:59:22;;;;;;;14.45;10.93;;;;;;;;;;5111809;28;20195;-62
2021/03/11 05:01:50;;;;;;;11.75;10.07;;;;;;;;;;5110789;28;20675;-61
2021/03/11 05:04:18;;;;;;;11.90;9.82;;;;;;;;;;5112398;28;20220;-62
2021/03/11 05:06:44;;;;;;;12.07;10.57;;;;;;;;;;5112262;28;20221;-63
2021/03/11 05:09:11;;;;;;;12.20;9.65;;;;;;;;;;5111822;28;20196;-63
2021/03/11 05:11:38;;;;;;;12.80;10.85;;;;;;;;;;5111669;28;20571;-62
2021/03/11 05:14:05;;;;;;;11.05;9.55;;;;;;;;;;5111446;28;20223;-63
2021/03/11 05:16:32;;;;;;;13.05;10.45;;;;;;;;;;5111190;28;20228;-63
2021/03/11 05:18:59;;;;;;;12.02;10.43;;;;;;;;;;5098527;28;20201;-61
2021/03/11 05:21:26;;;;;;;13.57;9.93;;;;;;;;;;5097567;28;20220;-62
2021/03/11 05:23:54;;;;;;;14.55;10.77;;;;;;;;;;5097171;28;20243;-62
2021/03/11 05:26:21;;;;;;;12.20;9.75;;;;;;;;;;5097923;28;20212;-63
2021/03/11 05:28:48;;;;;;;14.10;9.65;;;;;;;;;;5097759;28;20514;-62
2021/03/11 05:31:15;;;;;;;11.35;9.30;;;;;;;;;;5099169;28;20207;-61
2021/03/11 05:33:42;;;;;;;14.82;9.95;;;;;;;;;;5098032;28;20227;-61
2021/03/11 05:36:09;;;;;;;11.70;9.10;;;;;;;;;;5098442;28;20245;-61
2021/03/11 05:38:36;;;;;;;11.98;9.55;;;;;;;;;;5098278;28;20204;-63
2021/03/11 05:41:03;;;;;;;12.30;8.93;;;;;;;;;;5097982;28;20226;-60
2021/03/11 05:43:30;;;;;;;10.93;9.23;;;;;;;;;;5099504;28;20712;-62
2021/03/11 05:45:58;;;;;;;10.27;9.15;;;;;;;;;;5100412;28;20224;-63
2021/03/11 05:48:25;;;;;;;11.32;9.65;;;;;;;;;;5101151;28;20208;-61
2021/03/11 05:50:53;;;;;;;12.10;9.32;;;;;;;;;;5100999;28;20250;-63
2021/03/11 05:53:20;;;;;;;10.85;9.15;;;;;;;;;;5100822;28;20735;-63
2021/03/11 05:55:47;;;;;;;14.52;10.32;;;;;;;;;;5101256;28;20211;-63
2021/03/11 05:58:14;;;;;;;12.68;10.00;;;;;;;;;;5100275;28;20222;-61
2021/03/11 06:00:41;;;;;;;16.38;10.00;;;;;;;;;;5106929;28;20204;-61
2021/03/11 06:03:08;;;;;;;15.70;10.90;;;;;;;;;;5102275;28;20215;-62
2021/03/11 06:05:35;;;;;;;13.55;10.27;;;;;;;;;;5100556;28;20703;-61
2021/03/11 06:08:02;;;;;;;14.07;10.23;;;;;;;;;;5098830;28;20286;-62
2021/03/11 06:10:29;;;;;;;14.10;10.60;;;;;;;;;;5096780;28;20201;-61
2021/03/11 06:12:57;;;;;;;16.10;11.00;;;;;;;;;;5096162;28;20200;-63
2021/03/11 06:15:25;;;;;;;14.13;10.27;;;;;;;;;;5096077;28;20208;-62
2021/03/11 06:17:53;;;;;;;12.05;9.82;;;;;;;;;;5097380;28;20200;-63
2021/03/11 06:20:19;;;;;;;14.05;10.38;;;;;;;;;;5096433;28;20204;-62
2021/03/11 06:22:48;;;;;;;12.68;10.20;;;;;;;;;;5095731;28;20200;-63
2021/03/11 06:25:16;;;;;;;13.40;10.10;;;;;;;;;;5095673;28;20228;-62
2021/03/11 06:27:42;;;;;;;14.32;9.65;;;;;;;;;;5096566;28;20220;-62
2021/03/11 06:30:29;;;;;;;13.55;10.57;;;;;;;;;;5094984;28;20200;-62
2021/03/11 06:32:56;;;;;;;13.75;10.82;;;;;;;;;;5096997;28;20185;-62
2021/03/11 06:35:23;;;;;;;15.10;10.38;;;;;;;;;;5101031;28;20207;-62
2021/03/11 06:37:50;;;;;;;14.40;11.20;;;;;;;;;;5105550;28;20199;-61
2021/03/11 06:40:18;;;;;;;15.38;10.20;;;;;;;;;;5096162;28;20215;-62
2021/03/11 06:42:45;;;;;;;12.90;10.40;;;;;;;;;;5095761;28;20204;-61
2021/03/11 06:45:21;;;;;;;15.55;11.15;;;;;;;;;;5098112;28;20623;-61
2021/03/11 06:47:48;;;;;;;17.83;11.27;;;;;;;;;;5101897;28;20208;-62
2021/03/11 06:50:15;;;;;;;16.50;12.48;;;;;;;;;;5102515;28;20204;-62
2021/03/11 06:53:00;;;;;;;12.35;11.05;;;;;;;;;;5103722;28;20200;-61
2021/03/11 06:55:28;;;;;;;15.70;10.98;;;;;;;;;;5105834;28;20193;-62
2021/03/11 06:57:55;;;;;;;13.57;11.63;;;;;;;;;;5108879;28;20193;-62
2021/03/11 07:00:22;;;;;;;14.07;10.85;;;;;;;;;;5103192;28;20275;-61
2021/03/11 07:02:50;;;;;;;13.13;11.23;;;;;;;;;;5101642;28;20227;-61
2021/03/11 07:05:17;;;;;;;15.48;11.23;;;;;;;;;;5101332;28;20257;-62
2021/03/11 07:07:44;;;;;;;16.70;11.85;;;;;;;;;;5098674;28;20726;-61
2021/03/11 07:10:22;;;;;;;14.60;11.90;;;;;;;;;;5097898;28;20208;-62
2021/03/11 07:12:53;;;;;;;14.15;10.90;;;;;;;;;;5094901;28;20184;-62
2021/03/11 07:15:22;;;;;;;13.43;10.68;;;;;;;;;;5094667;28;20243;-62
2021/03/11 07:17:48;;;;;;;16.35;13.13;;;;;;;;;;5094871;28;20231;-63
2021/03/11 07:20:16;;;;;;;13.93;10.50;;;;;;;;;;5094795;28;20277;-63
2021/03/11 07:22:43;;;;;;;12.00;10.52;;;;;;;;;;5094694;28;20660;-62
2021/03/11 07:25:26;;;;;;;17.35;11.45;;;;;;;;;;5095435;28;20220;-59
2021/03/11 07:27:53;;;;;;;12.98;11.25;;;;;;;;;;5095135;28;20209;-62
2021/03/11 07:30:22;;;;;;;16.70;11.90;;;;;;;;;;5095399;28;20246;-63
2021/03/11 07:32:49;;;;;;;15.57;10.57;;;;;;;;;;5094479;28;20592;-60
2021/03/11 07:35:17;;;;;;;12.00;10.18;;;;;;;;;;5094332;28;20221;-63
2021/03/11 07:37:48;;;;;;;12.70;9.52;;;;;;;;;;5094685;28;20612;-62
2021/03/11 07:40:15;;;;;;;14.00;9.93;;;;;;;;;;5094861;28;20266;-63
2021/03/11 07:42:42;;;;;;;13.25;9.15;;;;;;;;;;5094710;28;20204;-62
2021/03/11 07:45:12;;;;;;;10.63;8.88;;;;;;;;;;5094599;28;20224;-62
2021/03/11 07:47:40;;;;;;;13.75;9.63;;;;;;;;;;5094706;28;20709;-61
2021/03/11 07:50:08;;;;;;;12.77;9.35;;;;;;;;;;5095223;28;20200;-63
2021/03/11 07:52:35;;;;;;;12.88;8.85;;;;;;;;;;5095168;28;20207;-62
2021/03/11 07:55:04;;;;;;;12.48;9.10;;;;;;;;;;5094527;28;20727;-62
2021/03/11 07:57:32;;;;;;;10.95;7.85;;;;;;;;;;5094608;28;20242;-62
2021/03/11 07:59:59;;;;;;;12.48;9.32;;;;;;;;;;5095154;28;20210;-61
2021/03/11 08:02:27;;;;;;;10.05;6.50;;;;;;;;;;5097248;28;20257;-63
2021/03/11 08:04:54;;;;;;;10.10;8.18;;;;;;;;;;5098692;28;20220;-62
2021/03/11 08:07:22;;;;;;;8.50;6.32;;;;;;;;;;5096412;28;20223;-62
2021/03/11 08:09:49;;;;;;;9.57;6.43;;;;;;;;;;5097993;28;20305;-61
2021/03/11 08:12:26;;;;;;;7.70;6.72;;;;;;;;;;5097577;28;20554;-62
2021/03/11 08:14:53;;;;;;;9.48;6.85;;;;;;;;;;5098701;28;20216;-62
2021/03/11 08:17:40;;;;;;;9.73;7.85;;;;;;;;;;5098396;28;20207;-63
2021/03/11 08:20:07;;;;;;;7.45;6.55;;;;;;;;;;5096378;28;20668;-62
2021/03/11 08:23:01;;;;;;;6.95;6.13;;;;;;;;;;5097059;28;20208;-62
2021/03/11 08:25:55;;;;;;;6.63;5.72;;;;;;;;;;5102592;28;20184;-63
2021/03/11 08:28:38;;;;;;;7.00;4.68;;;;;;;;;;5060362;28;20197;-62
2021/03/11 08:31:06;;;;;;;6.22;5.10;;;;;;;;;;5096942;28;20184;-62
2021/03/11 08:33:44;;;;;;;6.28;4.95;;;;;;;;;;5095527;28;20301;-62
2021/03/11 08:36:24;;;;;;;5.70;5.07;;;;;;;;;;5095071;28;20192;-61
2021/03/11 08:38:51;;;;;;;7.30;5.30;;;;;;;;;;5094673;28;20232;-60
2021/03/11 08:41:27;;;;;;;4.95;4.25;;;;;;;;;;5094460;28;20208;-63
2021/03/11 08:43:53;;;;;;;6.60;4.82;;;;;;;;;;5095015;28;20228;-63
2021/03/11 08:46:21;;;;;;;5.32;4.05;;;;;;;;;;5095213;28;20220;-64
2021/03/11 08:48:50;;;;;;;6.70;3.92;;;;;;;;;;5094938;28;20201;-63
2021/03/11 08:51:35;;;;;;;5.18;4.55;;;;;;;;;;5095948;28;20207;-64
2021/03/11 08:54:03;;;;;;;4.60;4.18;;;;;;;;;;5097898;28;20284;-63
2021/03/11 08:56:43;;;;;;;5.35;4.85;;;;;;;;;;5099025;28;20258;-63
2021/03/11 08:59:11;;;;;;;7.50;4.90;;;;;;;;;;5098292;28;20674;-61
2021/03/11 09:01:38;;;;;;;4.32;3.83;;;;;;;;;;5098317;28;20208;-61
2021/03/11 09:04:07;;;;;;;5.47;4.47;;;;;;;;;;5098313;28;20227;-62
2021/03/11 09:06:53;;;;;;;5.32;4.45;;;;;;;;;;5099461;28;20228;-63
2021/03/11 09:09:32;;;;;;;5.07;4.18;;;;;;;;;;5101732;28;20202;-63
2021/03/11 09:11:59;;;;;;;5.80;4.65;;;;;;;;;;5101457;28;20220;-61
2021/03/11 09:14:29;;;;;;;4.15;3.72;;;;;;;;;;5102167;28;20224;-62
2021/03/11 09:17:09;;;;;;;6.18;4.82;;;;;;;;;;5101168;28;20547;-62
2021/03/11 09:19:42;;;;;;;5.97;4.18;;;;;;;;;;5099584;28;20574;-62
2021/03/11 09:22:19;;;;;;;8.02;5.03;;;;;;;;;;5098254;28;20200;-62
2021/03/11 09:24:55;;;;;;;7.57;4.30;;;;;;;;;;5099240;28;20227;-63
2021/03/11 09:27:21;;;;;;;6.30;4.18;;;;;;;;;;5098033;28;20332;-63
2021/03/11 09:29:48;;;;;;;6.00;4.07;;;;;;;;;;5097395;28;20212;-60
2021/03/11 09:32:15;;;;;;;5.60;5.00;;;;;;;;;;5098353;28;20200;-62
2021/03/11 09:34:54;;;;;;;6.57;4.75;;;;;;;;;;5097572;28;20235;-65
2021/03/11 09:37:35;;;;;;;6.63;4.55;;;;;;;;;;5097297;28;20180;-63
2021/03/11 09:40:02;;;;;;;5.70;3.63;;;;;;;;;;5097085;28;20223;-62
2021/03/11 09:42:29;;;;;;;3.58;3.20;;;;;;;;;;5096871;28;20200;-61
2021/03/11 09:44:55;;;;;;;4.28;3.80;;;;;;;;;;5097042;28;20224;-62
2021/03/11 09:47:28;;;;;;;3.70;2.95;;;;;;;;;;5098869;28;20212;-64
2021/03/11 09:50:05;;;;;;;3.97;3.30;;;;;;;;;;5109753;28;20184;-63
2021/03/11 09:52:32;;;;;;;3.73;3.40;;;;;;;;;;5113892;28;20422;-64
2021/03/11 09:54:59;;;;;;;4.43;3.67;;;;;;;;;;5111615;28;20458;-64
2021/03/11 09:57:25;;;;;;;3.90;2.90;;;;;;;;;;5111975;28;20455;-64
2021/03/11 09:59:52;;;;;;;3.30;2.77;;;;;;;;;;5109158;28;20443;-63
2021/03/11 10:02:19;;;;;;;3.30;2.90;;;;;;;;;;5098352;28;21007;-63
2021/03/11 10:04:46;;;;;;;4.20;2.77;;;;;;;;;;5098697;28;20482;-64
2021/03/11 10:07:14;;;;;;;6.00;2.90;;;;;;;;;;5097027;28;20493;-63
2021/03/11 10:09:42;;;;;;;4.37;3.10;;;;;;;;;;5096674;28;20450;-62
2021/03/11 10:12:10;;;;;;;2.80;2.50;;;;;;;;;;5098660;28;20438;-62
2021/03/11 10:14:38;;;;;;;3.70;2.60;;;;;;;;;;5099512;28;20465;-62
2021/03/11 10:17:07;;;;;;;3.27;2.97;;;;;;;;;;5104748;28;20439;-62
2021/03/11 10:19:34;;;;;;;2.73;2.53;;;;;;;;;;5097419;28;20458;-61
2021/03/11 10:22:03;;;;;;;4.00;2.40;;;;;;;;;;5096368;28;20450;-63
2021/03/11 10:24:31;;;;;;;3.10;2.40;;;;;;;;;;5096347;28;20462;-63
2021/03/11 10:26:58;;;;;;;2.83;2.10;;;;;;;;;;5096111;28;20892;-63
2021/03/11 10:29:27;;;;;;;4.67;2.90;;;;;;;;;;5096167;28;20449;-59
2021/03/11 10:31:56;;;;;;;3.67;2.10;;;;;;;;;;5096436;28;20442;-63
2021/03/11 10:34:23;;;;;;;4.33;1.90;;;;;;;;;;5099600;28;20492;-61
2021/03/11 10:36:55;;;;;;;8.53;1.83;;;;;;;;;;5097990;28;20438;-62
2021/03/11 10:39:23;;;;;;;2.97;2.37;;;;;;;;;;5097255;28;20430;-62
2021/03/11 10:41:59;;;;;;;6.00;1.60;;;;;;;;;;5099738;28;20442;-61
2021/03/11 10:44:26;;;;;;;2.97;1.60;;;;;;;;;;5102463;28;20825;-61
2021/03/11 10:46:52;;;;;;;2.60;1.33;;;;;;;;;;5101740;28;20478;-62
2021/03/11 10:49:35;;;;;;;3.93;1.60;;;;;;;;;;5103992;28;20453;-62
2021/03/11 10:52:01;;;;;;;1.97;1.70;;;;;;;;;;5102669;28;20454;-64
2021/03/11 10:54:28;;;;;;;2.90;1.70;;;;;;;;;;5104342;28;20466;-62
2021/03/11 10:57:06;;;;;;;4.43;1.47;;;;;;;;;;5102626;28;20430;-64
2021/03/11 10:59:46;;;;;;;4.17;1.73;;;;;;;;;;5097721;28;20454;-61
2021/03/11 11:02:13;;;;;;;2.20;1.70;;;;;;;;;;5097471;28;20496;-62
2021/03/11 11:04:41;;;;;;;2.43;1.70;;;;;;;;;;5096417;28;20496;-65
2021/03/11 11:07:08;;;;;;;2.30;1.90;;;;;;;;;;5095284;28;20486;-62
2021/03/11 11:09:34;;;;;;;3.17;1.60;;;;;;;;;;5094957;28;20442;-62
2021/03/11 11:12:01;;;;;;;1.70;1.40;;;;;;;;;;5095469;28;20468;-63
2021/03/11 11:14:29;;;;;;;2.80;2.07;;;;;;;;;;5094681;28;20527;-63
2021/03/11 11:16:56;;;;;;;2.10;1.67;;;;;;;;;;5094340;28;20442;-63
2021/03/11 11:19:22;;;;;;;2.67;1.40;;;;;;;;;;5095143;28;20999;-63
2021/03/11 11:21:49;;;;;;;3.43;1.80;;;;;;;;;;5094526;28;20455;-63
2021/03/11 11:24:16;;;;;;;3.40;1.40;;;;;;;;;;5094981;28;20487;-63
2021/03/11 11:26:43;;;;;;;2.93;1.70;;;;;;;;;;5095300;28;21047;-63
2021/03/11 11:29:09;;;;;;;1.77;1.20;;;;;;;;;;5095163;28;20946;-63
2021/03/11 11:31:37;;;;;;;3.53;1.80;;;;;;;;;;5095069;28;20442;-63
2021/03/11 11:34:04;;;;;;;3.97;1.87;;;;;;;;;;5095106;28;20535;-62
2021/03/11 11:36:31;;;;;;;2.30;1.53;;;;;;;;;;5094833;28;20442;-61
2021/03/11 11:38:57;;;;;;;5.37;1.40;;;;;;;;;;5094653;28;20439;-63
2021/03/11 11:41:24;;;;;;;2.63;1.60;;;;;;;;;;5094679;28;20454;-62
2021/03/11 11:43:51;;;;;;;3.40;1.40;;;;;;;;;;5095132;28;20462;-62
2021/03/11 11:46:18;;;;;;;3.23;1.47;;;;;;;;;;5094878;28;20507;-61
2021/03/11 11:48:45;;;;;;;2.90;1.60;;;;;;;;;;5095319;28;20445;-63
2021/03/11 11:51:12;;;;;;;2.60;1.77;;;;;;;;;;5094623;28;20450;-64
2021/03/11 11:53:39;;;;;;;4.23;1.53;;;;;;;;;;5094440;28;20831;-62
2021/03/11 11:56:06;;;;;;;2.97;1.73;;;;;;;;;;5094424;28;20820;-63
2021/03/11 11:58:32;;;;;;;4.37;3.07;;;;;;;;;;5094303;28;20443;-63
2021/03/11 12:00:59;;;;;;;3.40;1.60;;;;;;;;;;5094902;28;20816;-62
2021/03/11 12:03:26;;;;;;;3.67;1.80;;;;;;;;;;5094287;28;20458;-61
2021/03/11 12:05:54;;;;;;;6.50;1.93;;;;;;;;;;5094343;28;20462;-62
2021/03/11 12:08:21;;;;;;;3.10;1.80;;;;;;;;;;5094176;28;21000;-63
2021/03/11 12:10:47;;;;;;;6.73;2.27;;;;;;;;;;5094319;28;20445;-63
2021/03/11 12:13:14;;;;;;;3.23;1.73;;;;;;;;;;5095318;28;20848;-64
2021/03/11 12:15:41;;;;;;;3.87;1.63;;;;;;;;;;5095927;28;20922;-62
2021/03/11 12:18:08;;;;;;;7.00;1.83;;;;;;;;;;5095481;28;20942;-63
2021/03/11 12:20:35;;;;;;;4.17;1.70;;;;;;;;;;5095517;28;20453;-62
2021/03/11 12:23:03;;;;;;;4.97;1.90;;;;;;;;;;5095293;28;20446;-63
2021/03/11 12:25:30;;;;;;;5.97;2.20;;;;;;;;;;5095248;28;20495;-63
2021/03/11 12:27:57;;;;;;;5.83;2.13;;;;;;;;;;5095870;28;20683;-63
2021/03/11 12:30:24;;;;;;;5.20;2.47;;;;;;;;;;5099608;28;20446;-63
2021/03/11 12:32:51;;;;;;;8.83;2.70;;;;;;;;;;5105870;28;20468;-63
2021/03/11 12:35:18;;;;;;;8.77;2.60;;;;;;;;;;5109359;28;20462;-63
2021/03/11 12:37:45;;;;;;;10.83;2.30;;;;;;;;;;5107422;28;20462;-63
2021/03/11 12:40:13;;;;;;;3.80;2.03;;;;;;;;;;5099031;28;20434;-63
2021/03/11 12:42:41;;;;;;;4.87;2.70;;;;;;;;;;5098390;28;20442;-62
2021/03/11 12:45:08;;;;;;;8.60;2.70;;;;;;;;;;5098567;28;20481;-62
2021/03/11 12:47:35;;;;;;;7.47;2.60;;;;;;;;;;5098316;28;20470;-63
2021/03/11 12:50:02;;;;;;;6.40;2.80;;;;;;;;;;5097184;28;20446;-62
2021/03/11 12:52:29;;;;;;;6.30;3.27;;;;;;;;;;5097539;28;20956;-63
2021/03/11 12:54:55;;;;;;;7.50;3.17;;;;;;;;;;5099569;28;20458;-62
2021/03/11 12:57:23;;;;;;;7.43;3.40;;;;;;;;;;5099092;28;20450;-62
2021/03/11 12:59:50;;;;;;;7.23;3.20;;;;;;;;;;5103749;28;20487;-62
2021/03/11 13:02:17;;;;;;;6.33;2.90;;;;;;;;;;5107329;28;20784;-61
2021/03/11 13:04:43;;;;;;;6.67;2.80;;;;;;;;;;5100531;28;20478;-63
2021/03/11 13:07:10;;;;;;;7.73;2.57;;;;;;;;;;5101097;28;21006;-63
2021/03/11 13:09:37;;;;;;;8.10;3.40;;;;;;;;;;5099719;28;20451;-63
2021/03/11 13:12:04;;;;;;;9.63;3.07;;;;;;;;;;5099737;28;20438;-63
2021/03/11 13:14:32;;;;;;;9.17;3.37;;;;;;;;;;5100083;28;20473;-62
2021/03/11 13:16:59;;;;;;;7.33;3.60;;;;;;;;;;5098618;28;20434;-61
2021/03/11 13:19:25;;;;;;;10.60;3.07;;;;;;;;;;5099004;28;20828;-62
2021/03/11 13:21:52;;;;;;;6.10;2.40;;;;;;;;;;5098348;28;20961;-62
2021/03/11 13:24:19;;;;;;;9.83;3.10;;;;;;;;;;5097687;28;20515;-63
2021/03/11 13:26:46;;;;;;;6.80;2.80;;;;;;;;;;5097315;28;20473;-62
2021/03/11 13:29:13;;;;;;;6.90;3.10;;;;;;;;;;5096846;28;20848;-63
2021/03/11 13:31:40;;;;;;;7.10;2.83;;;;;;;;;;5097257;28;20973;-62
2021/03/11 13:34:07;;;;;;;7.10;2.93;;;;;;;;;;5101090;28;20458;-62
2021/03/11 13:36:34;;;;;;;5.73;2.30;;;;;;;;;;5102212;28;20829;-62
2021/03/11 13:39:01;;;;;;;8.07;2.60;;;;;;;;;;5098376;28;20442;-61
2021/03/11 13:41:28;;;;;;;11.75;2.85;;;;;;;;;;5097346;28;20433;-63
2021/03/11 13:43:54;;;;;;;5.97;2.30;;;;;;;;;;5097274;28;20224;-63
2021/03/11 13:46:21;;;;;;;9.53;3.20;;;;;;;;;;5098086;28;20447;-63
2021/03/11 13:48:49;;;;;;;9.43;2.97;;;;;;;;;;5096643;28;20450;-62
2021/03/11 13:51:16;;;;;;;6.27;2.50;;;;;;;;;;5098930;28;20967;-62
2021/03/11 13:53:42;;;;;;;10.67;2.60;;;;;;;;;;5098357;28;20836;-63
2021/03/11 13:56:09;;;;;;;9.77;3.30;;;;;;;;;;5098970;28;20857;-63
2021/03/11 13:58:36;;;;;;;8.70;2.87;;;;;;;;;;5099522;28;20442;-64
2021/03/11 14:01:03;;;;;;;9.40;2.63;;;;;;;;;;5100124;28;20533;-61
2021/03/11 14:03:30;;;;;;;9.77;2.37;;;;;;;;;;5098764;28;20989;-61
2021/03/11 14:05:57;;;;;;;9.70;2.83;;;;;;;;;;5100766;28;20453;-61
2021/03/11 14:08:24;;;;;;;9.20;2.97;;;;;;;;;;5102986;28;20535;-62
2021/03/11 14:10:51;;;;;;;11.43;3.57;;;;;;;;;;5102157;28;20472;-62
2021/03/11 14:13:18;;;;;;;11.37;2.43;;;;;;;;;;5102609;28;20515;-62
2021/03/11 14:15:45;;;;;;;8.57;2.80;;;;;;;;;;5103727;28;20449;-64
2021/03/11 14:18:11;;;;;;;9.30;3.13;;;;;;;;;;5106063;28;20468;-62
2021/03/11 14:20:38;;;;;;;9.10;2.20;;;;;;;;;;5108280;28;20453;-62
2021/03/11 14:23:06;;;;;;;6.10;2.10;;;;;;;;;;5107892;28;21011;-61
2021/03/11 14:25:32;;;;;;;8.77;2.30;;;;;;;;;;5107796;28;20449;-63
2021/03/11 14:27:59;;;;;;;7.80;1.80;;;;;;;;;;5110263;28;20489;-60
2021/03/11 14:30:26;;;;;;;11.70;3.30;;;;;;;;;;5104390;28;20442;-62
2021/03/11 14:32:53;;;;;;;9.47;2.57;;;;;;;;;;5100461;28;20519;-61
2021/03/11 14:35:20;;;;;;;5.50;2.30;;;;;;;;;;5099983;28;20467;-63
2021/03/11 14:37:46;;;;;;;6.37;1.97;;;;;;;;;;5096586;28;20450;-61